x

East Scotia Slope (44137) Wave Buoy

11:00pm - Mon 30th Mar 2015 All times are EDT. -4 hours from GMT.

  • Sig Wave height 3.3ft
  • Peak Period 8s
  • Wind
    16mph, 22mph gusts
  • Sea Temp 49°f
  • Air Temp 49°f
  • Sea Pressure 1009.9mb
  • East Scotia Slope
  • East Scotia Slope

More Historic Weather Station data

Upgrade to MSW Pro to gain access to the past 30 days of data for over 8000 Wavebouys and Weather Stations around the globe.

Join Pro

Comparision Forecast

View Surf forecast
   
Mon 03/30 11:00pm 3.5ft 8s 16 22 mph 1009.9mb 49f 49f
10:00pm 3ft 9s 13 16 mph 1011mb 48f 49f
9:00pm 3.5ft 9s 9 11 mph 1011.9mb 49f 47f
8:00pm 3ft 10s 4 7 mph 1012.9mb 48f 44f
7:00pm 3ft 9s 4 7 mph 1013.5mb 49f 43f
6:00pm 3.5ft 9s 7
mph
1014.2mb 52f 42f
5:00pm 3.5ft 10s 9 13 mph 1014.3mb 53f 44f
4:00pm 3.5ft 10s 4 9 mph 1014.7mb 55f 44f
3:00pm 3.5ft 10s 4 9 mph 1015.2mb 56f 42f
2:00pm 4ft 9s 2 7 mph 1015.5mb 57f 42f
1:00pm 3.5ft 10s 2 4 mph 1016.4mb 56f 41f
12:00pm 3.5ft 10s 7 9 mph 1016.6mb 55f 40f
11:00am 3.5ft 10s 7 9 mph 1017.7mb 55f 39f
10:00am 3.5ft 10s 4 7 mph 1019mb 54f 38f
9:00am 4ft 10s 7 9 mph 1018.7mb 52f 38f
8:00am 4ft 10s 9 13 mph 1017.9mb 49f 38f
7:00am 4.5ft 10s 9 11 mph 1017.9mb 48f 37f
6:00am 4.5ft 10s 11 16 mph 1017.9mb 48f 37f
5:00am 4.5ft 10s 9 13 mph 1017.8mb 48f 37f
4:00am 4.5ft 11s 11 13 mph 1017.7mb 48f 37f
3:00am 5ft 10s 9 13 mph 1018.2mb 48f 37f
2:00am 5ft 11s 7 11 mph 1018.6mb 53f 37f
1:00am 5.5ft 11s 7 11 mph 1018.6mb 53f 38f
12:00am 6ft 11s 7 11 mph 1018.9mb 55f 38f
Sun 03/29 11:00pm 6.5ft 11s 4 7 mph 1019.4mb 55f 38f
10:00pm 6.5ft 11s 4 9 mph 1019.7mb 56f 38f
9:00pm 6.5ft 10s 2 4 mph 1020mb 56f 38f
8:00pm 8ft 11s 4 9 mph 1019.9mb 57f 37f
7:00pm 9ft 11s 4 13 mph 1019.3mb 57f 37f
6:00pm 9.5ft 11s 2 9 mph 1019.1mb 57f 38f
5:00pm 10ft 11s 7 13 mph 1018.7mb 58f 38f
4:00pm 12ft 11s 9 13 mph 1018.5mb 57f 37f
3:00pm 10ft 11s 7 11 mph 1018.5mb 55f 37f
2:00pm 12ft 11s 9 13 mph 1018.8mb 52f 36f
1:00pm 12.5ft 12s 9 13 mph 1019mb 51f 35f
12:00pm 14ft 9s 9 13 mph 1019.5mb 51f 35f
11:00am 15ft 9s 11 18 mph 1019.3mb 51f 35f
10:00am 17ft 12s 18 27 mph 1018.4mb 51f 35f
9:00am 16.5ft 12s 18 25 mph 1017.9mb 51f 34f
8:00am 17.5ft 13s 20 27 mph 1017.1mb 51f 35f
7:00am 18.5ft 13s 25 34 mph 1016.4mb 51f 34f
6:00am 19ft 13s 25 34 mph 1014.4mb 52f 34f
5:00am 20ft 13s 27 36 mph 1012.6mb 53f 34f
4:00am 20ft 12s 29 36 mph 1010.3mb 55f 35f
3:00am 19.5ft 11s 31 43 mph 1008.3mb 55f 36f
2:00am 17.5ft 10s 34 43 mph 1005.5mb 55f 37f
1:00am 20.5ft 12s 40 47 mph 1001.3mb 55f 38f
12:00am 22ft 11s 43 51 mph 994.7mb 55f 49f
Sat 03/28 11:00pm 18ft 12s 49 65 mph 992.7mb 55f 54f
10:00pm 14ft 12s 47 60 mph 993.1mb 52f 55f
9:00pm 13.5ft 12s 36 45 mph 992.7mb 51f 59f
8:00pm 13ft 9s 29 36 mph 993.9mb 52f 54f
7:00pm 13ft 12s 34 40 mph 993.8mb 52f 51f
6:00pm 13ft 9s 31 36 mph 994.5mb 50f 48f
5:00pm 14ft 8s 31 38 mph 994.9mb 49f 46f
4:00pm 13.5ft 8s 34 38 mph 996.4mb 49f 44f
3:00pm 14ft 8s 31
mph
997.5mb 49f 44f
2:00pm 14.5ft 8s 34 43 mph 998.1mb 48f 43f
1:00pm  -   -  36
mph
998.2mb 48f 44f
12:00pm 14ft 13s 38 47 mph 1000mb 48f 42f
11:00am 14ft 14s 36 49 mph 998.8mb 48f 44f
10:00am 13ft 13s 31 40 mph 1001mb 48f 44f
9:00am 15ft 13s 34 43 mph 1001.1mb 48f 44f
8:00am 14ft 12s 27 34 mph 1002.9mb 48f 45f
7:00am 14ft 12s 25 36 mph 1003.2mb 49f 45f
6:00am 13.5ft 12s 20 27 mph 1004mb 49f 45f
5:00am 13.5ft 10s 20 27 mph 1003.5mb 49f 44f
4:00am 15ft 12s 18 25 mph 1003.3mb 49f 44f
3:00am 15ft 13s 18 25 mph 1003.1mb 49f 43f
2:00am 16ft 12s 16 22 mph 1003.5mb 48f 43f
1:00am 16.5ft 13s 16 22 mph 1003.2mb 48f 43f
12:00am 16ft 12s 18 20 mph 1002.6mb 48f 45f
Fri 03/27 11:00pm 18ft 12s 11 18 mph 1001.3mb 49f 46f
10:00pm 17.5ft 13s 4 9 mph 1000.9mb 49f 51f
9:00pm 16.5ft 12s 9 11 mph 1000.8mb 50f 54f
8:00pm 17.5ft 13s 11 13 mph 1001.5mb 51f 54f
7:00pm 19ft 12s 7 11 mph 1000.2mb 53f 54f
6:00pm 17.5ft 13s 25 31 mph 1000.3mb 54f 58f
5:00pm 17ft 13s 34 45 mph 1000.6mb 55f 60f
4:00pm 18.5ft 12s 27 36 mph 1002.3mb 55f 58f
3:00pm 18ft 12s 27 34 mph 1003mb 55f 59f
2:00pm 18.5ft 11s 25 31 mph 1003.7mb 55f 59f
1:00pm 19ft 12s 29 36 mph 1004.7mb 55f 59f
12:00pm 19.5ft 11s 27 31 mph 1005.4mb 55f 58f
11:00am 19ft 11s 31 43 mph 1005.7mb 55f 58f
10:00am 19ft 12s 34 43 mph 1005.5mb 55f 60f
9:00am 19ft 11s 36 47 mph 1005.6mb 56f 60f
8:00am 17ft 10s 38 47 mph 1005.9mb 56f 60f
7:00am 16.5ft 11s 36 45 mph 1006.1mb 56f 60f
6:00am 17ft 11s 36 43 mph 1006.5mb 56f 60f
5:00am 16.5ft 11s 36 45 mph 1006.5mb 57f 60f